sensor_id;sensor_type;location;lat;lon;timestamp;pressure;altitude;pressure_sealevel;temperature;humidity
80174;BME280;69497;41.708;44.804;2023-05-10T17:20:58;96890.25;;;18.21;71.71
80174;BME280;69497;41.708;44.804;2023-05-10T17:23:24;96895.88;;;18.14;72.91
80174;BME280;69497;41.708;44.804;2023-05-10T17:25:50;96904.34;;;18.29;70.93
80174;BME280;69497;41.708;44.804;2023-05-10T17:28:16;96901.84;;;18.11;72.84
80174;BME280;69497;41.708;44.804;2023-05-10T17:30:42;96896.22;;;18.18;71.53
80174;BME280;69497;41.708;44.804;2023-05-10T17:33:09;96903.41;;;18.07;72.56
80174;BME280;69497;41.708;44.804;2023-05-10T17:35:35;96904.59;;;18.11;70.64
80174;BME280;69497;41.708;44.804;2023-05-10T17:38:01;96908.09;;;17.95;71.33
80174;BME280;69497;41.708;44.804;2023-05-10T17:40:27;96922.13;;;17.99;71.18
80174;BME280;69497;41.708;44.804;2023-05-10T17:42:53;96930.19;;;18.05;69.98
80174;BME280;69497;41.708;44.804;2023-05-10T17:45:19;96945.91;;;17.98;69.93
80174;BME280;69497;41.708;44.804;2023-05-10T17:47:46;96953.81;;;17.83;70.18
80174;BME280;69497;41.708;44.804;2023-05-10T17:50:12;96962.16;;;17.77;72.55
80174;BME280;69497;41.708;44.804;2023-05-10T17:52:38;96966.44;;;17.73;72.21
80174;BME280;69497;41.708;44.804;2023-05-10T17:55:04;96960.97;;;17.84;69.59
80174;BME280;69497;41.708;44.804;2023-05-10T17:57:30;96955.28;;;17.74;70.88
80174;BME280;69497;41.708;44.804;2023-05-10T17:59:56;96962.41;;;17.75;71.07
80174;BME280;69497;41.708;44.804;2023-05-10T18:02:22;96959.09;;;17.73;71.04
80174;BME280;69497;41.708;44.804;2023-05-10T18:04:48;96959.84;;;17.57;74.11
80174;BME280;69497;41.708;44.804;2023-05-10T18:07:14;96970.31;;;17.60;72.45
80174;BME280;69497;41.708;44.804;2023-05-10T18:09:41;96975.78;;;17.60;72.71
80174;BME280;69497;41.708;44.804;2023-05-10T18:12:06;96982.19;;;17.54;70.85
80174;BME280;69497;41.708;44.804;2023-05-10T18:14:33;96993.38;;;17.52;71.11
80174;BME280;69497;41.708;44.804;2023-05-10T18:16:58;96990.63;;;17.52;70.50
80174;BME280;69497;41.708;44.804;2023-05-10T18:19:25;96989.69;;;17.47;70.70
80174;BME280;69497;41.708;44.804;2023-05-10T18:21:51;96992.78;;;17.50;71.05
80174;BME280;69497;41.708;44.804;2023-05-10T18:24:18;96995.75;;;17.49;70.33
80174;BME280;69497;41.708;44.804;2023-05-10T18:26:46;96989.44;;;17.48;70.22
80174;BME280;69497;41.708;44.804;2023-05-10T18:29:12;96987.66;;;17.42;70.95
80174;BME280;69497;41.708;44.804;2023-05-10T18:31:38;96993.03;;;17.26;72.59
80174;BME280;69497;41.708;44.804;2023-05-10T18:34:07;96997.31;;;17.10;74.46
80174;BME280;69497;41.708;44.804;2023-05-10T18:36:32;97010.56;;;16.95;74.68
80174;BME280;69497;41.708;44.804;2023-05-10T18:38:59;97009.41;;;16.80;75.28
80174;BME280;69497;41.708;44.804;2023-05-10T18:41:25;96998.44;;;16.68;76.27
80174;BME280;69497;41.708;44.804;2023-05-10T18:43:52;97009.34;;;16.57;76.43
80174;BME280;69497;41.708;44.804;2023-05-10T18:46:18;97010.78;;;16.59;77.01
80174;BME280;69497;41.708;44.804;2023-05-10T18:48:44;97005.03;;;16.49;77.73
80174;BME280;69497;41.708;44.804;2023-05-10T18:51:10;97013.16;;;16.37;76.80
80174;BME280;69497;41.708;44.804;2023-05-10T18:53:37;97003.19;;;16.31;78.70
80174;BME280;69497;41.708;44.804;2023-05-10T18:56:05;96988.69;;;16.19;79.43
80174;BME280;69497;41.708;44.804;2023-05-10T18:58:31;96990.66;;;16.12;79.89
80174;BME280;69497;41.708;44.804;2023-05-10T19:01:00;97001.56;;;16.12;79.65
80174;BME280;69497;41.708;44.804;2023-05-10T19:03:27;97002.06;;;15.91;79.25
80174;BME280;69497;41.708;44.804;2023-05-10T19:05:54;97008.00;;;15.88;79.61
80174;BME280;69497;41.708;44.804;2023-05-10T19:08:19;97006.44;;;15.92;79.91
80174;BME280;69497;41.708;44.804;2023-05-10T19:10:45;97005.88;;;15.90;81.05
80174;BME280;69497;41.708;44.804;2023-05-10T19:13:11;97004.56;;;15.93;79.45
80174;BME280;69497;41.708;44.804;2023-05-10T19:15:39;97006.69;;;15.91;79.46
80174;BME280;69497;41.708;44.804;2023-05-10T19:18:06;97003.56;;;15.87;79.50
80174;BME280;69497;41.708;44.804;2023-05-10T19:20:32;97016.53;;;15.92;80.55
80174;BME280;69497;41.708;44.804;2023-05-10T19:22:58;97019.94;;;15.87;78.99
80174;BME280;69497;41.708;44.804;2023-05-10T19:25:24;97024.13;;;15.90;80.62
80174;BME280;69497;41.708;44.804;2023-05-10T19:27:55;97013.16;;;15.78;80.61
80174;BME280;69497;41.708;44.804;2023-05-10T19:30:24;97023.44;;;15.76;81.43
80174;BME280;69497;41.708;44.804;2023-05-10T19:32:50;97022.00;;;15.74;80.93
80174;BME280;69497;41.708;44.804;2023-05-10T19:35:17;97025.41;;;15.69;80.37
80174;BME280;69497;41.708;44.804;2023-05-10T19:37:43;97037.00;;;15.65;82.49
80174;BME280;69497;41.708;44.804;2023-05-10T19:40:13;97037.28;;;15.57;82.36
80174;BME280;69497;41.708;44.804;2023-05-10T19:42:43;97042.81;;;15.50;81.56
80174;BME280;69497;41.708;44.804;2023-05-10T19:45:09;97046.47;;;15.44;80.41
80174;BME280;69497;41.708;44.804;2023-05-10T19:47:35;97043.75;;;15.38;81.56
80174;BME280;69497;41.708;44.804;2023-05-10T19:50:02;97053.34;;;15.47;80.66
80174;BME280;69497;41.708;44.804;2023-05-10T19:52:28;97046.91;;;15.41;81.19
80174;BME280;69497;41.708;44.804;2023-05-10T19:54:54;97044.56;;;15.45;82.96
80174;BME280;69497;41.708;44.804;2023-05-10T19:57:20;97048.34;;;15.44;81.68
80174;BME280;69497;41.708;44.804;2023-05-10T19:59:46;97052.06;;;15.49;82.41
80174;BME280;69497;41.708;44.804;2023-05-10T20:02:13;97058.47;;;15.55;83.59
80174;BME280;69497;41.708;44.804;2023-05-10T20:04:39;97055.31;;;15.58;84.24
80174;BME280;69497;41.708;44.804;2023-05-10T20:07:05;97054.72;;;15.56;83.75
80174;BME280;69497;41.708;44.804;2023-05-10T20:09:31;97064.63;;;15.50;82.58
80174;BME280;69497;41.708;44.804;2023-05-10T20:11:57;97066.31;;;15.51;81.69
80174;BME280;69497;41.708;44.804;2023-05-10T20:14:24;97071.44;;;15.59;81.86
80174;BME280;69497;41.708;44.804;2023-05-10T20:16:50;97057.66;;;15.54;82.20
80174;BME280;69497;41.708;44.804;2023-05-10T20:19:16;97063.28;;;15.59;81.63
80174;BME280;69497;41.708;44.804;2023-05-10T20:21:41;97052.75;;;15.63;81.27
80174;BME280;69497;41.708;44.804;2023-05-10T20:24:10;97055.03;;;15.66;79.92
80174;BME280;69497;41.708;44.804;2023-05-10T20:26:36;97050.41;;;15.66;79.51
80174;BME280;69497;41.708;44.804;2023-05-10T20:29:02;97055.63;;;15.68;79.11
80174;BME280;69497;41.708;44.804;2023-05-10T20:31:28;97060.25;;;15.67;78.95
80174;BME280;69497;41.708;44.804;2023-05-10T20:33:54;97056.53;;;15.62;79.47
80174;BME280;69497;41.708;44.804;2023-05-10T20:36:20;97057.50;;;15.67;78.63
80174;BME280;69497;41.708;44.804;2023-05-10T20:38:46;97053.13;;;15.66;78.79
80174;BME280;69497;41.708;44.804;2023-05-10T20:41:12;97048.13;;;15.63;78.59
80174;BME280;69497;41.708;44.804;2023-05-10T20:43:38;97050.31;;;15.73;77.17
80174;BME280;69497;41.708;44.804;2023-05-10T20:46:04;97058.13;;;15.69;77.35
80174;BME280;69497;41.708;44.804;2023-05-10T20:48:31;97060.31;;;15.61;77.32
80174;BME280;69497;41.708;44.804;2023-05-10T20:50:57;97059.00;;;15.63;77.16
80174;BME280;69497;41.708;44.804;2023-05-10T20:53:23;97061.91;;;15.68;76.94
80174;BME280;69497;41.708;44.804;2023-05-10T20:55:49;97059.63;;;15.65;76.72
80174;BME280;69497;41.708;44.804;2023-05-10T20:58:15;97060.25;;;15.67;76.19
80174;BME280;69497;41.708;44.804;2023-05-10T21:00:41;97067.94;;;15.70;75.48
80174;BME280;69497;41.708;44.804;2023-05-10T21:03:09;97058.75;;;15.71;75.44
80174;BME280;69497;41.708;44.804;2023-05-10T21:05:36;97065.38;;;15.75;74.68
80174;BME280;69497;41.708;44.804;2023-05-10T21:08:01;97066.44;;;15.74;74.99
80174;BME280;69497;41.708;44.804;2023-05-10T21:10:27;97062.66;;;15.75;74.75
80174;BME280;69497;41.708;44.804;2023-05-10T21:12:54;97064.78;;;15.73;74.02
80174;BME280;69497;41.708;44.804;2023-05-10T21:15:20;97073.72;;;15.80;74.07
80174;BME280;69497;41.708;44.804;2023-05-10T21:17:53;97064.34;;;15.76;74.12
80174;BME280;69497;41.708;44.804;2023-05-10T21:20:19;97048.75;;;15.83;73.45
80174;BME280;69497;41.708;44.804;2023-05-10T21:22:45;97046.63;;;15.85;72.56
80174;BME280;69497;41.708;44.804;2023-05-10T21:25:11;97050.84;;;15.81;73.62
80174;BME280;69497;41.708;44.804;2023-05-10T21:27:37;97052.22;;;15.72;72.84
80174;BME280;69497;41.708;44.804;2023-05-10T21:30:04;97051.75;;;15.75;72.71
80174;BME280;69497;41.708;44.804;2023-05-10T21:32:31;97051.31;;;15.78;72.26
80174;BME280;69497;41.708;44.804;2023-05-10T21:34:56;97036.75;;;15.84;72.54
80174;BME280;69497;41.708;44.804;2023-05-10T21:37:22;97030.47;;;15.84;72.01
80174;BME280;69497;41.708;44.804;2023-05-10T21:39:48;97037.44;;;15.80;71.67
80174;BME280;69497;41.708;44.804;2023-05-10T21:42:14;97049.19;;;15.80;71.44
80174;BME280;69497;41.708;44.804;2023-05-10T21:44:40;97051.97;;;15.74;72.54
80174;BME280;69497;41.708;44.804;2023-05-10T21:47:06;97050.09;;;15.74;73.01
80174;BME280;69497;41.708;44.804;2023-05-10T21:49:32;97049.25;;;15.74;72.75
80174;BME280;69497;41.708;44.804;2023-05-10T21:51:58;97060.91;;;15.81;73.58
80174;BME280;69497;41.708;44.804;2023-05-10T21:54:24;97060.53;;;15.77;73.06
80174;BME280;69497;41.708;44.804;2023-05-10T21:56:50;97048.81;;;15.77;73.80
80174;BME280;69497;41.708;44.804;2023-05-10T21:59:17;97046.75;;;15.72;72.70
80174;BME280;69497;41.708;44.804;2023-05-10T22:01:43;97047.84;;;15.71;73.06
80174;BME280;69497;41.708;44.804;2023-05-10T22:04:09;97044.19;;;15.77;71.95
80174;BME280;69497;41.708;44.804;2023-05-10T22:06:35;97046.69;;;15.79;72.59
80174;BME280;69497;41.708;44.804;2023-05-10T22:09:01;97035.84;;;15.72;73.24
80174;BME280;69497;41.708;44.804;2023-05-10T22:11:27;97032.09;;;15.73;72.54
80174;BME280;69497;41.708;44.804;2023-05-10T22:13:53;97050.09;;;15.74;72.71
80174;BME280;69497;41.708;44.804;2023-05-10T22:16:19;97046.28;;;15.75;73.03
80174;BME280;69497;41.708;44.804;2023-05-10T22:18:45;97039.56;;;15.78;71.34
80174;BME280;69497;41.708;44.804;2023-05-10T22:21:11;97027.44;;;15.74;71.33
80174;BME280;69497;41.708;44.804;2023-05-10T22:23:37;97027.22;;;15.75;71.25
80174;BME280;69497;41.708;44.804;2023-05-10T22:26:03;97016.03;;;15.83;71.41
80174;BME280;69497;41.708;44.804;2023-05-10T22:28:29;97024.81;;;15.85;70.57
80174;BME280;69497;41.708;44.804;2023-05-10T22:30:55;97032.53;;;15.88;70.67
80174;BME280;69497;41.708;44.804;2023-05-10T22:33:21;97020.50;;;15.78;70.71
80174;BME280;69497;41.708;44.804;2023-05-10T22:35:47;97012.31;;;15.78;70.25
80174;BME280;69497;41.708;44.804;2023-05-10T22:38:13;97017.69;;;15.84;70.69
80174;BME280;69497;41.708;44.804;2023-05-10T22:40:40;97016.03;;;15.83;70.18
80174;BME280;69497;41.708;44.804;2023-05-10T22:43:06;97020.41;;;15.84;69.91
80174;BME280;69497;41.708;44.804;2023-05-10T22:45:32;97022.13;;;15.79;70.58
80174;BME280;69497;41.708;44.804;2023-05-10T22:47:58;97024.44;;;15.82;69.95
80174;BME280;69497;41.708;44.804;2023-05-10T22:50:24;97022.38;;;15.77;69.95
80174;BME280;69497;41.708;44.804;2023-05-10T22:52:50;97018.75;;;15.83;70.06
80174;BME280;69497;41.708;44.804;2023-05-10T22:55:16;97018.38;;;15.80;69.55
80174;BME280;69497;41.708;44.804;2023-05-10T22:57:42;97027.06;;;15.88;69.02
80174;BME280;69497;41.708;44.804;2023-05-10T23:00:08;97019.28;;;15.92;69.50
80174;BME280;69497;41.708;44.804;2023-05-10T23:02:35;97015.78;;;15.85;69.14
80174;BME280;69497;41.708;44.804;2023-05-10T23:05:01;97010.47;;;15.90;69.41
80174;BME280;69497;41.708;44.804;2023-05-10T23:07:29;97009.50;;;15.84;69.30
80174;BME280;69497;41.708;44.804;2023-05-10T23:09:55;97005.34;;;15.82;69.28
80174;BME280;69497;41.708;44.804;2023-05-10T23:12:21;97004.03;;;15.84;69.24
80174;BME280;69497;41.708;44.804;2023-05-10T23:14:47;97007.22;;;15.81;68.71
80174;BME280;69497;41.708;44.804;2023-05-10T23:17:14;97017.06;;;15.82;68.45
80174;BME280;69497;41.708;44.804;2023-05-10T23:19:40;97008.88;;;15.82;68.01
80174;BME280;69497;41.708;44.804;2023-05-10T23:22:06;97023.88;;;15.91;67.60
80174;BME280;69497;41.708;44.804;2023-05-10T23:24:32;97026.47;;;15.86;67.92
80174;BME280;69497;41.708;44.804;2023-05-10T23:26:58;97031.31;;;15.84;67.03
80174;BME280;69497;41.708;44.804;2023-05-10T23:29:24;97021.16;;;15.91;66.88
80174;BME280;69497;41.708;44.804;2023-05-10T23:31:50;97026.97;;;15.95;67.54
80174;BME280;69497;41.708;44.804;2023-05-10T23:34:17;97028.50;;;15.91;66.49
80174;BME280;69497;41.708;44.804;2023-05-10T23:36:43;97033.28;;;15.77;66.76
80174;BME280;69497;41.708;44.804;2023-05-10T23:39:08;97029.88;;;15.82;66.67
80174;BME280;69497;41.708;44.804;2023-05-10T23:41:34;97025.84;;;15.84;67.26
80174;BME280;69497;41.708;44.804;2023-05-10T23:44:00;97026.47;;;15.86;66.58
80174;BME280;69497;41.708;44.804;2023-05-10T23:46:29;97035.78;;;15.79;66.68
80174;BME280;69497;41.708;44.804;2023-05-10T23:48:55;97037.06;;;15.76;66.40
80174;BME280;69497;41.708;44.804;2023-05-10T23:51:21;97044.69;;;15.86;66.90
80174;BME280;69497;41.708;44.804;2023-05-10T23:53:47;97036.91;;;15.89;66.56
80174;BME280;69497;41.708;44.804;2023-05-10T23:56:13;97046.63;;;15.85;66.55
80174;BME280;69497;41.708;44.804;2023-05-10T23:58:39;97041.97;;;15.86;66.41
